sensor_id;sensor_type;location;lat;lon;timestamp;pressure;altitude;pressure_sealevel;temperature;humidity
71970;BME280;59838;52.152;5.436;2022-08-11T00:00:12;102446.56;;;17.94;67.75
71970;BME280;59838;52.152;5.436;2022-08-11T00:02:43;102445.97;;;17.92;67.51
71970;BME280;59838;52.152;5.436;2022-08-11T00:05:15;102454.03;;;17.90;67.73
71970;BME280;59838;52.152;5.436;2022-08-11T00:07:44;102456.28;;;17.94;67.42
71970;BME280;59838;52.152;5.436;2022-08-11T00:10:13;102450.22;;;17.93;67.29
71970;BME280;59838;52.152;5.436;2022-08-11T00:12:41;102449.97;;;17.88;67.39
71970;BME280;59838;52.152;5.436;2022-08-11T00:15:09;102455.09;;;17.75;67.70
71970;BME280;59838;52.152;5.436;2022-08-11T00:17:36;102446.56;;;17.66;68.60
71970;BME280;59838;52.152;5.436;2022-08-11T00:20:09;102451.16;;;17.64;68.18
71970;BME280;59838;52.152;5.436;2022-08-11T00:22:44;102457.81;;;17.60;68.04
71970;BME280;59838;52.152;5.436;2022-08-11T00:25:14;102460.03;;;17.56;69.06
71970;BME280;59838;52.152;5.436;2022-08-11T00:27:41;102458.38;;;17.55;69.85
71970;BME280;59838;52.152;5.436;2022-08-11T00:30:10;102463.41;;;17.50;69.97
71970;BME280;59838;52.152;5.436;2022-08-11T00:32:38;102463.53;;;17.42;69.92
71970;BME280;59838;52.152;5.436;2022-08-11T00:35:07;102459.63;;;17.38;69.39
71970;BME280;59838;52.152;5.436;2022-08-11T00:37:56;102456.75;;;17.32;69.74
71970;BME280;59838;52.152;5.436;2022-08-11T00:41:27;102455.53;;;17.28;69.44
71970;BME280;59838;52.152;5.436;2022-08-11T00:58:14;102462.25;;;16.94;69.92
71970;BME280;59838;52.152;5.436;2022-08-11T01:01:04;102474.28;;;16.89;70.10
71970;BME280;59838;52.152;5.436;2022-08-11T01:12:23;102475.19;;;16.66;71.46
71970;BME280;59838;52.152;5.436;2022-08-11T01:15:23;102467.59;;;16.56;70.83
71970;BME280;59838;52.152;5.436;2022-08-11T01:18:31;102462.09;;;16.51;70.67
71970;BME280;59838;52.152;5.436;2022-08-11T01:45:06;102453.94;;;16.01;74.03
71970;BME280;59838;52.152;5.436;2022-08-11T01:47:55;102461.34;;;15.98;73.63
71970;BME280;59838;52.152;5.436;2022-08-11T01:59:15;102455.19;;;15.67;75.20
71970;BME280;59838;52.152;5.436;2022-08-11T02:05:08;102459.06;;;15.57;75.51
71970;BME280;59838;52.152;5.436;2022-08-11T02:07:54;102462.66;;;15.56;75.76
71970;BME280;59838;52.152;5.436;2022-08-11T02:10:31;102460.22;;;15.54;75.70
71970;BME280;59838;52.152;5.436;2022-08-11T02:13:56;102457.13;;;15.50;75.97
71970;BME280;59838;52.152;5.436;2022-08-11T02:22:34;102447.94;;;15.31;75.65
71970;BME280;59838;52.152;5.436;2022-08-11T02:25:45;102447.66;;;15.26;76.54
71970;BME280;59838;52.152;5.436;2022-08-11T02:30:57;102458.75;;;15.05;77.84
71970;BME280;59838;52.152;5.436;2022-08-11T02:34:30;102454.66;;;15.03;78.05
71970;BME280;59838;52.152;5.436;2022-08-11T02:45:38;102456.63;;;15.01;79.69
71970;BME280;59838;52.152;5.436;2022-08-11T02:48:24;102448.16;;;14.98;80.11
71970;BME280;59838;52.152;5.436;2022-08-11T02:57:07;102441.72;;;15.01;80.34
71970;BME280;59838;52.152;5.436;2022-08-11T02:59:50;102443.09;;;14.97;80.06
71970;BME280;59838;52.152;5.436;2022-08-11T03:07:42;102442.97;;;14.90;79.67
71970;BME280;59838;52.152;5.436;2022-08-11T03:10:40;102443.63;;;14.84;79.59
71970;BME280;59838;52.152;5.436;2022-08-11T03:13:28;102438.56;;;14.83;80.24
71970;BME280;59838;52.152;5.436;2022-08-11T03:16:23;102430.72;;;14.83;80.83
71970;BME280;59838;52.152;5.436;2022-08-11T03:19:27;102436.94;;;14.81;81.27
71970;BME280;59838;52.152;5.436;2022-08-11T03:22:05;102439.72;;;14.80;81.76
71970;BME280;59838;52.152;5.436;2022-08-11T03:24:57;102434.81;;;14.77;81.47
71970;BME280;59838;52.152;5.436;2022-08-11T03:27:40;102431.28;;;14.70;80.12
71970;BME280;59838;52.152;5.436;2022-08-11T03:36:17;102439.63;;;14.57;80.70
71970;BME280;59838;52.152;5.436;2022-08-11T03:39:06;102437.34;;;14.54;80.05
71970;BME280;59838;52.152;5.436;2022-08-11T03:41:41;102444.09;;;14.48;79.72
71970;BME280;59838;52.152;5.436;2022-08-11T03:44:37;102434.13;;;14.43;79.82
71970;BME280;59838;52.152;5.436;2022-08-11T03:50:00;102440.81;;;14.46;81.41
71970;BME280;59838;52.152;5.436;2022-08-11T03:55:18;102434.81;;;14.37;80.70
71970;BME280;59838;52.152;5.436;2022-08-11T04:01:19;102440.06;;;14.29;80.48
71970;BME280;59838;52.152;5.436;2022-08-11T04:15:26;102431.56;;;14.27;81.59
71970;BME280;59838;52.152;5.436;2022-08-11T04:18:30;102430.09;;;14.24;80.94
71970;BME280;59838;52.152;5.436;2022-08-11T04:27:06;102426.34;;;14.19;80.08
71970;BME280;59838;52.152;5.436;2022-08-11T04:52:01;102415.81;;;15.76;76.64
71970;BME280;59838;52.152;5.436;2022-08-11T04:54:37;102416.50;;;15.78;76.24
71970;BME280;59838;52.152;5.436;2022-08-11T05:01:47;102412.91;;;16.08;77.09
71970;BME280;59838;52.152;5.436;2022-08-11T05:14:28;102412.06;;;18.11;73.23
71970;BME280;59838;52.152;5.436;2022-08-11T05:17:15;102406.38;;;20.42;65.83
71970;BME280;59838;52.152;5.436;2022-08-11T05:20:09;102406.38;;;22.56;59.28
71970;BME280;59838;52.152;5.436;2022-08-11T05:22:59;102405.75;;;24.38;53.36
71970;BME280;59838;52.152;5.436;2022-08-11T05:25:46;102407.59;;;25.68;49.42
71970;BME280;59838;52.152;5.436;2022-08-11T05:29:00;102408.59;;;27.20;46.42
71970;BME280;59838;52.152;5.436;2022-08-11T05:31:58;102409.88;;;28.13;44.13
71970;BME280;59838;52.152;5.436;2022-08-11T05:34:51;102411.28;;;28.41;43.67
71970;BME280;59838;52.152;5.436;2022-08-11T05:40:11;102415.53;;;28.42;43.52
71970;BME280;59838;52.152;5.436;2022-08-11T05:42:59;102421.41;;;28.29;43.01
71970;BME280;59838;52.152;5.436;2022-08-11T05:46:00;102421.22;;;28.61;42.48
71970;BME280;59838;52.152;5.436;2022-08-11T05:48:46;102415.63;;;30.00;39.24
71970;BME280;59838;52.152;5.436;2022-08-11T05:51:33;102424.94;;;30.13;38.31
71970;BME280;59838;52.152;5.436;2022-08-11T05:54:22;102428.47;;;29.98;38.14
71970;BME280;59838;52.152;5.436;2022-08-11T05:57:19;102435.94;;;28.90;40.95
71970;BME280;59838;52.152;5.436;2022-08-11T06:00:08;102430.81;;;29.14;41.03
71970;BME280;59838;52.152;5.436;2022-08-11T06:02:40;102429.50;;;29.16;40.12
71970;BME280;59838;52.152;5.436;2022-08-11T06:05:07;102429.78;;;29.30;39.96
71970;BME280;59838;52.152;5.436;2022-08-11T06:07:35;102431.63;;;29.04;40.51
71970;BME280;59838;52.152;5.436;2022-08-11T06:10:25;102437.28;;;28.82;41.61
71970;BME280;59838;52.152;5.436;2022-08-11T06:12:52;102433.19;;;28.49;41.58
71970;BME280;59838;52.152;5.436;2022-08-11T06:15:21;102432.03;;;28.08;42.08
71970;BME280;59838;52.152;5.436;2022-08-11T06:17:49;102436.53;;;27.93;41.72
71970;BME280;59838;52.152;5.436;2022-08-11T06:20:17;102436.59;;;28.08;42.66
71970;BME280;59838;52.152;5.436;2022-08-11T06:22:47;102436.84;;;28.01;42.12
71970;BME280;59838;52.152;5.436;2022-08-11T06:25:20;102428.81;;;27.96;42.13
71970;BME280;59838;52.152;5.436;2022-08-11T06:27:53;102435.28;;;28.26;42.31
71970;BME280;59838;52.152;5.436;2022-08-11T06:30:43;102428.59;;;28.13;41.52
71970;BME280;59838;52.152;5.436;2022-08-11T06:33:15;102427.00;;;28.12;42.32
71970;BME280;59838;52.152;5.436;2022-08-11T06:35:56;102423.81;;;28.25;41.90
71970;BME280;59838;52.152;5.436;2022-08-11T06:49:09;102426.88;;;27.91;43.03
71970;BME280;59838;52.152;5.436;2022-08-11T06:52:08;102421.84;;;28.00;42.12
71970;BME280;59838;52.152;5.436;2022-08-11T06:54:58;102432.34;;;28.17;42.42
71970;BME280;59838;52.152;5.436;2022-08-11T06:57:33;102425.13;;;28.28;43.04
71970;BME280;59838;52.152;5.436;2022-08-11T07:00:20;102421.19;;;28.56;40.88
71970;BME280;59838;52.152;5.436;2022-08-11T07:03:07;102418.53;;;28.72;41.99
71970;BME280;59838;52.152;5.436;2022-08-11T07:05:53;102421.47;;;28.60;41.21
71970;BME280;59838;52.152;5.436;2022-08-11T07:14:47;102418.78;;;30.07;39.14
71970;BME280;59838;52.152;5.436;2022-08-11T07:17:38;102416.69;;;30.49;36.16
71970;BME280;59838;52.152;5.436;2022-08-11T07:20:07;102418.84;;;29.97;37.71
71970;BME280;59838;52.152;5.436;2022-08-11T07:22:55;102423.25;;;29.57;38.28
71970;BME280;59838;52.152;5.436;2022-08-11T07:25:42;102420.56;;;29.62;38.62
71970;BME280;59838;52.152;5.436;2022-08-11T07:28:29;102426.44;;;29.69;37.68
71970;BME280;59838;52.152;5.436;2022-08-11T07:31:31;102418.56;;;30.49;36.67
71970;BME280;59838;52.152;5.436;2022-08-11T07:34:27;102415.47;;;31.24;35.24
71970;BME280;59838;52.152;5.436;2022-08-11T07:36:56;102423.16;;;32.22;35.25
71970;BME280;59838;52.152;5.436;2022-08-11T07:39:31;102420.31;;;31.95;34.00
71970;BME280;59838;52.152;5.436;2022-08-11T07:42:04;102423.25;;;31.74;33.84
71970;BME280;59838;52.152;5.436;2022-08-11T07:44:31;102421.06;;;31.04;33.67
71970;BME280;59838;52.152;5.436;2022-08-11T07:47:20;102416.41;;;30.51;34.88
71970;BME280;59838;52.152;5.436;2022-08-11T07:50:07;102419.78;;;30.22;35.82
71970;BME280;59838;52.152;5.436;2022-08-11T07:52:54;102423.69;;;29.90;36.69
71970;BME280;59838;52.152;5.436;2022-08-11T07:55:22;102417.88;;;30.22;35.70
71970;BME280;59838;52.152;5.436;2022-08-11T07:58:10;102408.06;;;30.52;36.29
71970;BME280;59838;52.152;5.436;2022-08-11T08:01:20;102413.63;;;30.61;34.84
71970;BME280;59838;52.152;5.436;2022-08-11T08:04:07;102406.03;;;30.39;36.49
71970;BME280;59838;52.152;5.436;2022-08-11T08:06:54;102415.16;;;31.02;35.40
71970;BME280;59838;52.152;5.436;2022-08-11T08:09:41;102405.72;;;31.33;34.11
71970;BME280;59838;52.152;5.436;2022-08-11T08:12:28;102409.75;;;30.43;37.02
71970;BME280;59838;52.152;5.436;2022-08-11T08:15:15;102411.81;;;29.15;38.97
71970;BME280;59838;52.152;5.436;2022-08-11T08:18:05;102418.50;;;28.51;38.24
71970;BME280;59838;52.152;5.436;2022-08-11T08:20:51;102408.06;;;28.34;38.20
71970;BME280;59838;52.152;5.436;2022-08-11T08:23:22;102417.38;;;28.11;39.90
71970;BME280;59838;52.152;5.436;2022-08-11T08:26:03;102410.47;;;28.31;40.61
71970;BME280;59838;52.152;5.436;2022-08-11T08:28:42;102415.66;;;27.89;40.08
71970;BME280;59838;52.152;5.436;2022-08-11T08:31:11;102412.53;;;28.03;41.17
71970;BME280;59838;52.152;5.436;2022-08-11T08:33:39;102417.88;;;28.08;39.69
71970;BME280;59838;52.152;5.436;2022-08-11T08:36:08;102417.88;;;28.03;41.12
71970;BME280;59838;52.152;5.436;2022-08-11T08:38:49;102422.56;;;27.80;41.23
71970;BME280;59838;52.152;5.436;2022-08-11T08:41:19;102419.38;;;27.78;40.29
71970;BME280;59838;52.152;5.436;2022-08-11T08:43:49;102411.28;;;27.68;39.83
71970;BME280;59838;52.152;5.436;2022-08-11T08:46:22;102407.56;;;27.69;40.23
71970;BME280;59838;52.152;5.436;2022-08-11T08:48:54;102405.38;;;27.56;39.89
71970;BME280;59838;52.152;5.436;2022-08-11T08:51:22;102403.25;;;27.58;40.64
71970;BME280;59838;52.152;5.436;2022-08-11T08:54:27;102406.44;;;27.54;39.40
71970;BME280;59838;52.152;5.436;2022-08-11T08:56:56;102401.13;;;27.65;38.43
71970;BME280;59838;52.152;5.436;2022-08-11T08:59:25;102400.59;;;27.68;40.57
71970;BME280;59838;52.152;5.436;2022-08-11T09:02:12;102407.09;;;27.87;41.81
71970;BME280;59838;52.152;5.436;2022-08-11T09:04:40;102408.41;;;27.80;39.86
71970;BME280;59838;52.152;5.436;2022-08-11T09:07:11;102399.13;;;27.93;40.05
71970;BME280;59838;52.152;5.436;2022-08-11T09:09:42;102404.00;;;28.01;39.36
71970;BME280;59838;52.152;5.436;2022-08-11T09:12:10;102400.53;;;28.16;38.85
71970;BME280;59838;52.152;5.436;2022-08-11T09:14:40;102399.75;;;28.25;38.41
71970;BME280;59838;52.152;5.436;2022-08-11T09:17:34;102402.97;;;28.33;36.92
71970;BME280;59838;52.152;5.436;2022-08-11T09:20:07;102400.84;;;28.35;37.63
71970;BME280;59838;52.152;5.436;2022-08-11T09:22:37;102401.91;;;28.44;38.27
71970;BME280;59838;52.152;5.436;2022-08-11T09:25:43;102393.69;;;28.66;37.59
71970;BME280;59838;52.152;5.436;2022-08-11T09:28:36;102388.31;;;28.76;35.91
71970;BME280;59838;52.152;5.436;2022-08-11T09:31:05;102382.19;;;28.66;34.82
71970;BME280;59838;52.152;5.436;2022-08-11T09:33:32;102389.13;;;28.67;36.77
71970;BME280;59838;52.152;5.436;2022-08-11T09:35:59;102383.22;;;28.80;35.77
71970;BME280;59838;52.152;5.436;2022-08-11T09:38:50;102376.81;;;28.91;36.04
71970;BME280;59838;52.152;5.436;2022-08-11T09:41:36;102375.75;;;28.92;36.23
71970;BME280;59838;52.152;5.436;2022-08-11T09:44:32;102373.31;;;29.01;34.92
71970;BME280;59838;52.152;5.436;2022-08-11T09:47:26;102373.31;;;29.11;34.47
71970;BME280;59838;52.152;5.436;2022-08-11T09:49:58;102372.78;;;29.04;34.23
71970;BME280;59838;52.152;5.436;2022-08-11T09:52:28;102369.28;;;29.09;35.21
71970;BME280;59838;52.152;5.436;2022-08-11T09:54:57;102369.81;;;29.26;34.32
71970;BME280;59838;52.152;5.436;2022-08-11T09:57:24;102370.31;;;29.39;33.31
71970;BME280;59838;52.152;5.436;2022-08-11T10:00:11;102366.50;;;29.60;33.36
71970;BME280;59838;52.152;5.436;2022-08-11T10:02:44;102362.72;;;29.66;34.42
71970;BME280;59838;52.152;5.436;2022-08-11T10:05:14;102362.66;;;29.82;33.27
71970;BME280;59838;52.152;5.436;2022-08-11T10:08:01;102370.97;;;29.80;31.00
71970;BME280;59838;52.152;5.436;2022-08-11T10:10:33;102359.50;;;29.69;31.79
71970;BME280;59838;52.152;5.436;2022-08-11T10:13:05;102357.25;;;29.87;31.85
71970;BME280;59838;52.152;5.436;2022-08-11T10:15:54;102363.19;;;29.84;29.70
71970;BME280;59838;52.152;5.436;2022-08-11T10:18:42;102361.06;;;29.76;30.37
71970;BME280;59838;52.152;5.436;2022-08-11T10:21:28;102357.25;;;29.87;30.73
71970;BME280;59838;52.152;5.436;2022-08-11T10:23:57;102345.94;;;30.00;28.90
71970;BME280;59838;52.152;5.436;2022-08-11T10:26:45;102348.56;;;30.11;28.75
71970;BME280;59838;52.152;5.436;2022-08-11T10:29:35;102337.75;;;30.21;29.10
71970;BME280;59838;52.152;5.436;2022-08-11T10:32:24;102334.97;;;30.36;28.94
71970;BME280;59838;52.152;5.436;2022-08-11T10:35:28;102332.03;;;30.67;29.39
71970;BME280;59838;52.152;5.436;2022-08-11T10:37:55;102330.03;;;30.54;27.33
71970;BME280;59838;52.152;5.436;2022-08-11T10:40:36;102330.28;;;30.18;28.15
71970;BME280;59838;52.152;5.436;2022-08-11T10:43:03;102326.50;;;30.19;27.44
71970;BME280;59838;52.152;5.436;2022-08-11T10:45:40;102331.81;;;30.29;27.29
71970;BME280;59838;52.152;5.436;2022-08-11T10:48:28;102329.09;;;30.34;26.74
71970;BME280;59838;52.152;5.436;2022-08-11T10:50:55;102321.88;;;30.64;27.30
71970;BME280;59838;52.152;5.436;2022-08-11T10:53:44;102321.25;;;30.72;28.35
71970;BME280;59838;52.152;5.436;2022-08-11T10:56:35;102319.13;;;30.69;27.91
71970;BME280;59838;52.152;5.436;2022-08-11T10:59:22;102315.72;;;30.63;25.68
71970;BME280;59838;52.152;5.436;2022-08-11T11:01:51;102318.72;;;30.86;27.63
71970;BME280;59838;52.152;5.436;2022-08-11T11:04:43;102313.72;;;31.04;26.67
71970;BME280;59838;52.152;5.436;2022-08-11T11:07:20;102319.97;;;30.94;26.04
71970;BME280;59838;52.152;5.436;2022-08-11T11:09:53;102310.19;;;30.79;27.51
71970;BME280;59838;52.152;5.436;2022-08-11T11:12:33;102303.06;;;30.93;28.05
71970;BME280;59838;52.152;5.436;2022-08-11T11:15:21;102309.59;;;31.11;26.61
71970;BME280;59838;52.152;5.436;2022-08-11T11:18:21;102309.88;;;31.10;27.12
71970;BME280;59838;52.152;5.436;2022-08-11T11:21:09;102302.53;;;30.96;27.28
71970;BME280;59838;52.152;5.436;2022-08-11T11:23:42;102309.00;;;30.90;26.14
71970;BME280;59838;52.152;5.436;2022-08-11T11:29:10;102308.59;;;30.78;26.83
71970;BME280;59838;52.152;5.436;2022-08-11T11:37:21;102302.72;;;31.24;26.57
71970;BME280;59838;52.152;5.436;2022-08-11T11:39:48;102296.63;;;31.19;26.65
71970;BME280;59838;52.152;5.436;2022-08-11T11:42:15;102297.53;;;31.33;25.85
71970;BME280;59838;52.152;5.436;2022-08-11T11:44:44;102284.84;;;31.14;26.18
71970;BME280;59838;52.152;5.436;2022-08-11T11:47:12;102283.84;;;31.10;25.06
71970;BME280;59838;52.152;5.436;2022-08-11T11:49:41;102290.00;;;31.11;25.07
71970;BME280;59838;52.152;5.436;2022-08-11T11:52:17;102286.84;;;31.28;26.49
71970;BME280;59838;52.152;5.436;2022-08-11T11:54:46;102288.72;;;31.27;25.15
71970;BME280;59838;52.152;5.436;2022-08-11T11:57:18;102281.47;;;31.28;27.28
71970;BME280;59838;52.152;5.436;2022-08-11T12:00:06;102283.00;;;31.34;25.88
71970;BME280;59838;52.152;5.436;2022-08-11T12:03:02;102280.53;;;31.38;25.37
71970;BME280;59838;52.152;5.436;2022-08-11T12:05:32;102270.41;;;31.53;24.61
71970;BME280;59838;52.152;5.436;2022-08-11T12:08:00;102270.69;;;31.52;24.61
71970;BME280;59838;52.152;5.436;2022-08-11T12:13:39;102269.63;;;31.72;23.69
71970;BME280;59838;52.152;5.436;2022-08-11T12:16:09;102267.22;;;31.70;24.63
71970;BME280;59838;52.152;5.436;2022-08-11T12:18:58;102269.50;;;31.96;26.07
71970;BME280;59838;52.152;5.436;2022-08-11T12:21:27;102258.38;;;32.03;24.96
71970;BME280;59838;52.152;5.436;2022-08-11T12:23:56;102260.03;;;31.99;24.59
71970;BME280;59838;52.152;5.436;2022-08-11T12:26:42;102248.53;;;31.79;24.44
71970;BME280;59838;52.152;5.436;2022-08-11T12:29:35;102242.16;;;31.75;24.58
71970;BME280;59838;52.152;5.436;2022-08-11T12:32:09;102243.50;;;31.92;25.28
71970;BME280;59838;52.152;5.436;2022-08-11T12:34:36;102240.06;;;32.05;23.58
71970;BME280;59838;52.152;5.436;2022-08-11T12:37:03;102237.75;;;31.98;24.13
71970;BME280;59838;52.152;5.436;2022-08-11T12:39:50;102247.38;;;31.85;25.40
71970;BME280;59838;52.152;5.436;2022-08-11T12:43:06;102241.72;;;31.68;25.69
71970;BME280;59838;52.152;5.436;2022-08-11T12:46:06;102223.59;;;31.60;23.42
71970;BME280;59838;52.152;5.436;2022-08-11T12:48:42;102227.59;;;31.62;24.04
71970;BME280;59838;52.152;5.436;2022-08-11T12:51:32;102232.00;;;31.72;23.45
71970;BME280;59838;52.152;5.436;2022-08-11T12:54:44;102223.59;;;31.60;24.12
71970;BME280;59838;52.152;5.436;2022-08-11T12:57:25;102214.19;;;31.76;24.08
71970;BME280;59838;52.152;5.436;2022-08-11T13:00:13;102220.03;;;31.97;23.02
71970;BME280;59838;52.152;5.436;2022-08-11T13:03:00;102209.56;;;31.96;25.42
71970;BME280;59838;52.152;5.436;2022-08-11T13:05:52;102206.19;;;32.04;24.53
71970;BME280;59838;52.152;5.436;2022-08-11T13:08:21;102211.06;;;32.35;23.03
71970;BME280;59838;52.152;5.436;2022-08-11T13:10:49;102206.31;;;32.59;23.44
71970;BME280;59838;52.152;5.436;2022-08-11T13:13:36;102216.56;;;32.43;23.17
71970;BME280;59838;52.152;5.436;2022-08-11T13:16:33;102202.09;;;32.53;23.00
71970;BME280;59838;52.152;5.436;2022-08-11T13:19:22;102197.44;;;32.45;22.75
71970;BME280;59838;52.152;5.436;2022-08-11T13:21:49;102198.59;;;32.25;22.99
71970;BME280;59838;52.152;5.436;2022-08-11T13:24:19;102199.09;;;32.13;22.56
71970;BME280;59838;52.152;5.436;2022-08-11T13:26:46;102193.56;;;32.04;23.24
71970;BME280;59838;52.152;5.436;2022-08-11T13:29:18;102192.16;;;32.07;23.10
71970;BME280;59838;52.152;5.436;2022-08-11T13:31:45;102191.03;;;32.13;23.73
71970;BME280;59838;52.152;5.436;2022-08-11T13:34:14;102189.66;;;32.16;25.30
71970;BME280;59838;52.152;5.436;2022-08-11T13:36:41;102189.84;;;32.19;23.17
71970;BME280;59838;52.152;5.436;2022-08-11T13:39:09;102181.00;;;32.19;23.12
71970;BME280;59838;52.152;5.436;2022-08-11T13:41:36;102179.47;;;32.13;23.46
71970;BME280;59838;52.152;5.436;2022-08-11T13:44:10;102178.78;;;32.35;24.35
71970;BME280;59838;52.152;5.436;2022-08-11T13:46:44;102172.22;;;32.83;21.54
71970;BME280;59838;52.152;5.436;2022-08-11T13:49:15;102164.13;;;32.96;22.55
71970;BME280;59838;52.152;5.436;2022-08-11T13:51:42;102168.22;;;32.80;24.28
71970;BME280;59838;52.152;5.436;2022-08-11T13:54:18;102172.63;;;32.76;22.51
71970;BME280;59838;52.152;5.436;2022-08-11T13:56:48;102163.66;;;32.53;23.76
71970;BME280;59838;52.152;5.436;2022-08-11T13:59:18;102169.22;;;32.56;22.91
71970;BME280;59838;52.152;5.436;2022-08-11T14:01:58;102161.16;;;32.42;22.95
71970;BME280;59838;52.152;5.436;2022-08-11T14:04:58;102155.59;;;32.39;22.66
71970;BME280;59838;52.152;5.436;2022-08-11T14:07:33;102164.44;;;32.39;22.70
71970;BME280;59838;52.152;5.436;2022-08-11T14:10:11;102161.06;;;32.48;23.96
71970;BME280;59838;52.152;5.436;2022-08-11T14:12:40;102159.84;;;32.54;22.53
71970;BME280;59838;52.152;5.436;2022-08-11T14:15:40;102158.56;;;32.37;23.77
71970;BME280;59838;52.152;5.436;2022-08-11T14:18:17;102148.31;;;32.53;23.05
71970;BME280;59838;52.152;5.436;2022-08-11T14:20:49;102146.59;;;32.57;24.38
71970;BME280;59838;52.152;5.436;2022-08-11T14:23:43;102147.22;;;32.68;22.64
71970;BME280;59838;52.152;5.436;2022-08-11T14:26:15;102145.63;;;32.53;23.43
71970;BME280;59838;52.152;5.436;2022-08-11T14:28:59;102150.22;;;32.39;23.01
71970;BME280;59838;52.152;5.436;2022-08-11T14:31:28;102141.47;;;32.33;23.33
71970;BME280;59838;52.152;5.436;2022-08-11T14:33:57;102131.69;;;32.51;23.21
71970;BME280;59838;52.152;5.436;2022-08-11T14:36:36;102140.13;;;32.58;23.69
71970;BME280;59838;52.152;5.436;2022-08-11T14:39:17;102132.69;;;32.69;23.06
71970;BME280;59838;52.152;5.436;2022-08-11T14:41:53;102132.16;;;32.67;22.00
71970;BME280;59838;52.152;5.436;2022-08-11T14:44:45;102136.56;;;32.63;23.29
71970;BME280;59838;52.152;5.436;2022-08-11T14:47:51;102133.09;;;32.63;23.46
71970;BME280;59838;52.152;5.436;2022-08-11T14:50:24;102132.16;;;32.39;22.77
71970;BME280;59838;52.152;5.436;2022-08-11T14:52:55;102122.31;;;32.49;23.40
71970;BME280;59838;52.152;5.436;2022-08-11T14:55:24;102126.78;;;32.67;23.27
71970;BME280;59838;52.152;5.436;2022-08-11T14:58:13;102117.63;;;32.54;22.05
71970;BME280;59838;52.152;5.436;2022-08-11T15:00:41;102122.69;;;32.56;22.24
71970;BME280;59838;52.152;5.436;2022-08-11T15:03:11;102122.56;;;32.89;23.93
71970;BME280;59838;52.152;5.436;2022-08-11T15:05:54;102109.38;;;32.65;23.50
71970;BME280;59838;52.152;5.436;2022-08-11T15:08:26;102108.59;;;32.64;23.10
71970;BME280;59838;52.152;5.436;2022-08-11T15:11:14;102099.28;;;32.56;23.37
71970;BME280;59838;52.152;5.436;2022-08-11T15:14:04;102095.34;;;32.40;22.86
71970;BME280;59838;52.152;5.436;2022-08-11T15:16:32;102093.91;;;32.56;22.58
71970;BME280;59838;52.152;5.436;2022-08-11T15:19:19;102106.09;;;32.40;22.57
71970;BME280;59838;52.152;5.436;2022-08-11T15:21:49;102101.19;;;32.28;22.48
71970;BME280;59838;52.152;5.436;2022-08-11T15:24:34;102104.69;;;32.15;22.73
71970;BME280;59838;52.152;5.436;2022-08-11T15:27:04;102103.47;;;32.07;21.94
71970;BME280;59838;52.152;5.436;2022-08-11T15:29:52;102104.81;;;32.10;22.39
71970;BME280;59838;52.152;5.436;2022-08-11T15:33:02;102098.38;;;32.05;22.07
71970;BME280;59838;52.152;5.436;2022-08-11T15:35:51;102091.88;;;32.25;22.86
71970;BME280;59838;52.152;5.436;2022-08-11T15:38:41;102086.88;;;32.33;23.02
71970;BME280;59838;52.152;5.436;2022-08-11T15:41:12;102086.97;;;32.41;23.63
71970;BME280;59838;52.152;5.436;2022-08-11T15:44:04;102083.69;;;32.44;26.31
71970;BME280;59838;52.152;5.436;2022-08-11T15:47:10;102080.47;;;32.42;25.10
71970;BME280;59838;52.152;5.436;2022-08-11T15:49:45;102074.91;;;32.39;23.36
71970;BME280;59838;52.152;5.436;2022-08-11T15:52:44;102073.41;;;32.33;23.44
71970;BME280;59838;52.152;5.436;2022-08-11T15:55:20;102067.84;;;32.43;21.62
71970;BME280;59838;52.152;5.436;2022-08-11T15:57:50;102067.94;;;32.38;22.59
71970;BME280;59838;52.152;5.436;2022-08-11T16:00:37;102070.53;;;32.29;23.11
71970;BME280;59838;52.152;5.436;2022-08-11T16:03:31;102065.69;;;32.17;22.74
71970;BME280;59838;52.152;5.436;2022-08-11T16:06:36;102057.59;;;32.03;22.10
71970;BME280;59838;52.152;5.436;2022-08-11T16:09:09;102057.97;;;31.97;22.78
71970;BME280;59838;52.152;5.436;2022-08-11T16:11:45;102053.78;;;31.90;22.79
71970;BME280;59838;52.152;5.436;2022-08-11T16:14:14;102059.97;;;31.91;23.69
71970;BME280;59838;52.152;5.436;2022-08-11T16:17:00;102059.09;;;31.82;24.44
71970;BME280;59838;52.152;5.436;2022-08-11T16:19:28;102058.28;;;31.67;23.67
71970;BME280;59838;52.152;5.436;2022-08-11T16:22:08;102058.56;;;31.66;24.84
71970;BME280;59838;52.152;5.436;2022-08-11T16:24:37;102059.44;;;31.61;23.35
71970;BME280;59838;52.152;5.436;2022-08-11T16:27:25;102055.78;;;31.71;25.19
71970;BME280;59838;52.152;5.436;2022-08-11T16:29:54;102063.63;;;31.67;24.50
71970;BME280;59838;52.152;5.436;2022-08-11T16:32:22;102058.66;;;31.61;24.67
71970;BME280;59838;52.152;5.436;2022-08-11T16:34:57;102061.47;;;31.50;23.95
71970;BME280;59838;52.152;5.436;2022-08-11T16:37:44;102061.16;;;31.38;25.43
71970;BME280;59838;52.152;5.436;2022-08-11T16:40:31;102054.19;;;31.37;25.53
71970;BME280;59838;52.152;5.436;2022-08-11T16:42:59;102054.56;;;31.30;24.54
71970;BME280;59838;52.152;5.436;2022-08-11T16:45:47;102053.78;;;31.30;25.46
71970;BME280;59838;52.152;5.436;2022-08-11T16:48:34;102056.31;;;31.21;25.25
71970;BME280;59838;52.152;5.436;2022-08-11T16:51:05;102057.00;;;31.13;25.19
71970;BME280;59838;52.152;5.436;2022-08-11T16:53:32;102057.88;;;31.08;26.12
71970;BME280;59838;52.152;5.436;2022-08-11T16:56:23;102056.97;;;30.99;24.77
71970;BME280;59838;52.152;5.436;2022-08-11T16:58:53;102056.56;;;30.87;25.22
71970;BME280;59838;52.152;5.436;2022-08-11T17:01:43;102059.41;;;30.76;24.98
71970;BME280;59838;52.152;5.436;2022-08-11T17:07:28;102048.09;;;30.60;26.29
71970;BME280;59838;52.152;5.436;2022-08-11T17:10:19;102047.00;;;30.42;26.45